createdAt,value
2019-03-16T00:00:53.892Z,78.77
2019-03-16T00:02:46.803Z,78.67
2019-03-16T00:03:46.813Z,78.38
2019-03-16T00:05:40.223Z,78.67
2019-03-16T00:06:40.233Z,78.67
2019-03-16T00:08:33.638Z,78.77
2019-03-16T00:09:33.725Z,78.48
2019-03-16T00:11:27.059Z,78.67
2019-03-16T00:12:27.060Z,79.33
2019-03-16T00:14:20.456Z,79.05
2019-03-16T00:15:20.462Z,78.96
2019-03-16T00:17:23.372Z,79.14
2019-03-16T00:18:13.879Z,78.96
2019-03-16T00:20:07.289Z,78.57
2019-03-16T00:21:07.308Z,78.19
2019-03-16T00:23:01.684Z,78.48
2019-03-16T00:24:01.697Z,77.72
2019-03-16T00:25:55.098Z,77.81
2019-03-16T00:26:55.106Z,77.62
2019-03-16T00:28:48.510Z,77.81
2019-03-16T00:29:48.517Z,78.29
2019-03-16T00:31:41.940Z,77.53
2019-03-16T00:32:41.925Z,77.62
2019-03-16T00:34:35.332Z,77.34
2019-03-16T00:35:35.339Z,78.19
2019-03-16T00:37:29.734Z,77.62
2019-03-16T00:38:29.745Z,77.81
2019-03-16T00:40:23.143Z,78.29
2019-03-16T00:41:23.154Z,77.72
2019-03-16T00:43:16.552Z,78.10
2019-03-16T00:44:16.564Z,78.57
2019-03-16T00:46:09.963Z,78.67
2019-03-16T00:47:09.974Z,78.19
2019-03-16T00:49:03.370Z,78.86
2019-03-16T00:50:03.378Z,78.57
2019-03-16T00:51:56.779Z,79.05
2019-03-16T00:52:56.784Z,78.96
2019-03-16T00:54:50.193Z,78.57
2019-03-16T00:55:50.194Z,78.67
2019-03-16T00:57:43.607Z,78.67
2019-03-16T00:58:43.616Z,78.57
2019-03-16T01:00:37.023Z,79.05
2019-03-16T01:01:37.029Z,78.86
2019-03-16T01:03:30.443Z,78.67
2019-03-16T01:04:30.448Z,78.67
2019-03-16T01:06:23.856Z,78.57
2019-03-16T01:07:23.857Z,78.67
2019-03-16T01:09:17.265Z,78.48
2019-03-16T01:10:17.274Z,78.67
2019-03-16T01:12:10.675Z,79.14
2019-03-16T01:13:10.679Z,78.77
2019-03-16T01:15:05.085Z,78.86
2019-03-16T01:16:05.085Z,78.38
2019-03-16T01:17:58.481Z,79.14
2019-03-16T01:18:58.491Z,79.14
2019-03-16T01:20:51.889Z,78.77
2019-03-16T01:21:51.898Z,79.14
2019-03-16T01:23:45.304Z,79.43
2019-03-16T01:24:45.313Z,79.62
2019-03-16T01:26:38.717Z,78.86
2019-03-16T01:27:38.724Z,78.48
2019-03-16T01:29:32.114Z,78.57
2019-03-16T01:30:32.127Z,78.86
2019-03-16T01:32:25.575Z,78.77
2019-03-16T01:33:25.536Z,78.29
2019-03-16T01:35:18.940Z,78.29
2019-03-16T01:36:18.953Z,78.00
2019-03-16T01:38:12.339Z,78.86
2019-03-16T01:39:12.351Z,78.48
2019-03-16T01:41:05.760Z,78.29
2019-03-16T01:42:05.761Z,78.57
2019-03-16T01:43:59.166Z,78.48
2019-03-16T01:44:59.175Z,78.48
2019-03-16T01:46:52.583Z,78.57
2019-03-16T01:47:52.579Z,78.29
2019-03-16T01:49:45.987Z,78.86
2019-03-16T01:50:45.997Z,77.62
2019-03-16T01:52:39.399Z,77.53
2019-03-16T01:53:39.408Z,77.62
2019-03-16T01:55:32.813Z,77.72
2019-03-16T01:56:32.819Z,77.53
2019-03-16T01:58:26.210Z,77.72
2019-03-16T01:59:26.226Z,77.62
2019-03-16T02:01:19.630Z,78.48
2019-03-16T02:02:19.632Z,78.10
2019-03-16T02:04:13.027Z,77.62
2019-03-16T02:05:13.039Z,77.91
2019-03-16T02:07:06.464Z,77.43
2019-03-16T02:08:06.438Z,77.81
2019-03-16T02:10:00.845Z,78.29
2019-03-16T02:11:00.852Z,78.38
2019-03-16T02:12:54.276Z,78.48
2019-03-16T02:13:54.263Z,78.19
2019-03-16T02:15:47.662Z,78.10
2019-03-16T02:16:47.672Z,78.19
2019-03-16T02:18:42.068Z,78.00
2019-03-16T02:19:42.097Z,78.67
2019-03-16T02:21:35.523Z,78.57
2019-03-16T02:22:35.491Z,78.38
2019-03-16T02:24:28.891Z,78.67
2019-03-16T02:25:28.893Z,78.67
2019-03-16T02:27:23.301Z,78.38
2019-03-16T02:28:23.318Z,78.48
2019-03-16T02:30:16.711Z,78.57
2019-03-16T02:31:16.730Z,78.77
2019-03-16T02:33:13.171Z,79.14
2019-03-16T02:34:09.772Z,79.14
2019-03-16T02:36:03.177Z,78.67
2019-03-16T02:37:03.180Z,78.48
2019-03-16T02:38:56.576Z,78.96
2019-03-16T02:39:56.594Z,79.05
2019-03-16T02:41:49.992Z,79.43
2019-03-16T02:42:49.993Z,79.62
2019-03-16T02:44:43.392Z,79.33
2019-03-16T02:45:43.405Z,79.81
2019-03-16T02:47:36.810Z,79.91
2019-03-16T02:48:36.823Z,79.72
2019-03-16T02:50:30.228Z,79.33
2019-03-16T02:51:30.230Z,80.00
2019-03-16T02:53:23.623Z,79.81
2019-03-16T02:54:23.632Z,79.72
2019-03-16T02:56:17.035Z,79.81
2019-03-16T02:57:17.182Z,79.91
2019-03-16T02:59:10.443Z,80.66
2019-03-16T03:00:10.446Z,80.47
2019-03-16T03:02:03.853Z,80.29
2019-03-16T03:03:03.858Z,80.38
2019-03-16T03:04:57.265Z,80.10
2019-03-16T03:05:57.263Z,81.24
2019-03-16T03:07:50.670Z,81.14
2019-03-16T03:08:50.677Z,81.14
2019-03-16T03:10:44.080Z,81.62
2019-03-16T03:11:44.081Z,81.62
2019-03-16T03:13:37.495Z,81.33
2019-03-16T03:14:37.486Z,81.14
2019-03-16T03:16:30.895Z,81.33
2019-03-16T03:17:30.896Z,81.05
2019-03-16T03:19:24.296Z,81.71
2019-03-16T03:20:24.305Z,81.62
2019-03-16T03:22:17.711Z,81.24
2019-03-16T03:23:17.712Z,81.24
2019-03-16T03:25:11.111Z,81.24
2019-03-16T03:26:11.119Z,81.14
2019-03-16T03:28:04.530Z,81.43
2019-03-16T03:29:04.527Z,81.81
2019-03-16T03:30:57.959Z,80.95
2019-03-16T03:31:57.935Z,81.52
2019-03-16T03:34:00.197Z,81.24
2019-03-16T03:34:51.355Z,81.24
2019-03-16T03:36:44.765Z,81.33
2019-03-16T03:37:44.749Z,81.62
2019-03-16T03:39:38.150Z,81.71
2019-03-16T03:40:38.161Z,81.24
2019-03-16T03:42:31.569Z,81.43
2019-03-16T03:43:31.567Z,81.43
2019-03-16T03:45:24.967Z,81.43
2019-03-16T03:46:24.974Z,81.14
2019-03-16T03:48:18.386Z,82.00
2019-03-16T03:49:18.395Z,81.71
2019-03-16T03:51:11.789Z,81.90
2019-03-16T03:52:11.795Z,82.09
2019-03-16T03:54:05.188Z,81.81
2019-03-16T03:55:05.203Z,81.81
2019-03-16T03:56:58.630Z,81.71
2019-03-16T03:57:58.613Z,82.00
2019-03-16T03:59:52.023Z,81.62
2019-03-16T04:00:52.025Z,82.09
2019-03-16T04:02:45.426Z,82.09
2019-03-16T04:03:45.435Z,81.81
2019-03-16T04:05:38.832Z,82.19
2019-03-16T04:06:38.839Z,82.28
2019-03-16T04:08:32.243Z,82.09
2019-03-16T04:09:32.249Z,82.00
2019-03-16T04:11:25.652Z,82.76
2019-03-16T04:12:25.658Z,82.57
2019-03-16T04:14:19.065Z,82.86
2019-03-16T04:15:19.063Z,82.95
2019-03-16T04:17:12.474Z,83.62
2019-03-16T04:18:12.476Z,83.52
2019-03-16T04:20:06.885Z,84.28
2019-03-16T04:21:06.878Z,85.04
2019-03-16T04:23:01.290Z,84.76
2019-03-16T04:24:01.292Z,85.14
2019-03-16T04:25:54.684Z,85.14
2019-03-16T04:26:54.700Z,85.52
2019-03-16T04:28:48.119Z,86.76
2019-03-16T04:29:48.121Z,86.76
2019-03-16T04:31:41.518Z,87.32
2019-03-16T04:32:41.525Z,85.80
2019-03-16T04:34:34.921Z,85.33
2019-03-16T04:35:34.932Z,85.52
2019-03-16T04:37:28.334Z,85.14
2019-03-16T04:38:28.424Z,84.95
2019-03-16T04:40:21.740Z,83.52
2019-03-16T04:41:21.759Z,81.90
2019-03-16T04:43:15.152Z,83.39
2019-03-16T04:44:15.158Z,83.33
2019-03-16T04:46:08.552Z,80.29
2019-03-16T04:47:08.562Z,79.68
2019-03-16T04:49:01.966Z,79.39
2019-03-16T04:50:01.971Z,79.49
2019-03-16T04:51:55.399Z,79.86
2019-03-16T04:52:55.397Z,81.29
2019-03-16T04:54:48.773Z,80.05
2019-03-16T04:55:48.782Z,79.96
2019-03-16T04:57:42.195Z,81.10
2019-03-16T04:58:42.192Z,81.58
2019-03-16T05:00:35.583Z,82.24
2019-03-16T05:01:35.596Z,81.86
2019-03-16T05:03:29.008Z,82.81
2019-03-16T05:04:41.667Z,83.29
2019-03-16T05:06:22.407Z,83.10
2019-03-16T05:07:22.410Z,83.58
2019-03-16T05:09:15.319Z,83.58
2019-03-16T05:10:15.321Z,83.58
2019-03-16T05:12:09.218Z,83.48
2019-03-16T05:13:09.221Z,83.48
2019-03-16T05:15:02.618Z,83.86
2019-03-16T05:16:02.630Z,83.19
2019-03-16T05:17:56.036Z,83.39
2019-03-16T05:18:56.102Z,83.39
2019-03-16T05:20:49.084Z,83.19
2019-03-16T05:21:49.087Z,84.43
2019-03-16T05:23:42.498Z,85.00
2019-03-16T05:24:42.492Z,85.00
2019-03-16T05:26:35.901Z,83.86
2019-03-16T05:27:35.902Z,83.95
2019-03-16T05:29:29.304Z,84.14
2019-03-16T05:30:29.332Z,84.05
2019-03-16T05:32:22.718Z,84.43
2019-03-16T05:33:22.718Z,84.33
2019-03-16T05:35:16.113Z,85.38
2019-03-16T05:36:16.124Z,85.38
2019-03-16T05:38:09.530Z,85.38
2019-03-16T05:39:09.535Z,85.28
2019-03-16T05:41:02.936Z,85.19
2019-03-16T05:42:05.280Z,85.38
2019-03-16T05:43:56.343Z,85.19
2019-03-16T05:44:56.351Z,85.38
2019-03-16T05:46:49.741Z,85.19
2019-03-16T05:47:49.751Z,85.19
2019-03-16T05:49:42.669Z,85.38
2019-03-16T05:50:42.672Z,85.00
2019-03-16T05:52:36.085Z,85.91
2019-03-16T05:53:36.081Z,86.19
2019-03-16T05:55:29.476Z,87.24
2019-03-16T05:56:29.491Z,87.24
2019-03-16T05:58:22.891Z,87.47
2019-03-16T05:59:22.893Z,86.90
2019-03-16T06:01:16.288Z,87.05
2019-03-16T06:02:16.301Z,88.04
2019-03-16T06:04:09.703Z,88.00
2019-03-16T06:05:11.234Z,88.38
2019-03-16T06:07:03.123Z,88.13
2019-03-16T06:08:03.115Z,87.85
2019-03-16T06:09:56.519Z,87.47
2019-03-16T06:10:56.536Z,87.19
2019-03-16T06:12:49.425Z,87.09
2019-03-16T06:13:49.428Z,87.19
2019-03-16T06:15:42.827Z,87.19
2019-03-16T06:16:42.837Z,87.47
2019-03-16T06:18:36.252Z,87.19
2019-03-16T06:19:36.264Z,87.09
2019-03-16T06:21:29.641Z,87.57
2019-03-16T06:22:29.656Z,87.76
2019-03-16T06:24:23.056Z,88.42
2019-03-16T06:25:23.055Z,88.33
2019-03-16T06:27:16.460Z,88.71
2019-03-16T06:28:16.462Z,89.00
2019-03-16T06:30:09.864Z,89.75
2019-03-16T06:31:09.871Z,89.66
2019-03-16T06:33:03.276Z,89.56
2019-03-16T06:34:03.279Z,89.56
2019-03-16T06:35:56.667Z,89.56
2019-03-16T06:36:56.685Z,89.94
2019-03-16T06:38:49.593Z,89.75
2019-03-16T06:39:49.593Z,90.42
2019-03-16T06:41:43.557Z,90.33
2019-03-16T06:42:43.002Z,90.70
2019-03-16T06:44:36.406Z,90.99
2019-03-16T06:45:36.417Z,90.42
2019-03-16T06:47:29.811Z,91.18
2019-03-16T06:48:29.817Z,91.28
2019-03-16T06:50:23.218Z,92.22
2019-03-16T06:51:23.222Z,92.03
2019-03-16T06:53:19.526Z,91.75
2019-03-16T06:54:16.626Z,92.22
2019-03-16T06:56:10.029Z,92.13
2019-03-16T06:57:10.048Z,92.13
2019-03-16T06:59:03.433Z,92.51
2019-03-16T07:00:03.446Z,92.32
2019-03-16T07:01:56.839Z,92.61
2019-03-16T07:02:56.847Z,92.80
2019-03-16T07:04:50.250Z,92.70
2019-03-16T07:05:50.255Z,92.99
2019-03-16T07:07:43.155Z,93.55
2019-03-16T07:08:43.163Z,93.84
2019-03-16T07:10:36.563Z,94.51
2019-03-16T07:11:36.568Z,94.03
2019-03-16T07:13:29.970Z,94.32
2019-03-16T07:14:29.992Z,95.27
2019-03-16T07:16:23.377Z,96.17
2019-03-16T07:17:23.384Z,96.50
2019-03-16T07:19:16.786Z,96.84
2019-03-16T07:20:16.792Z,97.50
2019-03-16T07:22:10.199Z,97.74
2019-03-16T07:23:10.254Z,97.97
2019-03-16T07:25:03.608Z,98.03
2019-03-16T07:26:14.079Z,98.22
2019-03-16T07:27:57.141Z,98.03
2019-03-16T07:28:57.024Z,97.93
2019-03-16T07:30:50.476Z,98.31
2019-03-16T07:31:50.432Z,98.22
2019-03-16T07:33:43.848Z,98.03
2019-03-16T07:34:43.838Z,98.12
2019-03-16T07:36:37.234Z,98.79
2019-03-16T07:37:37.245Z,98.69
2019-03-16T07:39:30.666Z,99.07
2019-03-16T07:40:30.657Z,99.07
2019-03-16T07:42:24.050Z,99.26
2019-03-16T07:43:24.064Z,99.26
2019-03-16T07:45:17.465Z,99.02
2019-03-16T07:46:17.467Z,98.83
2019-03-16T07:48:10.868Z,99.02
2019-03-16T07:49:10.879Z,98.93
2019-03-16T07:51:04.287Z,98.93
2019-03-16T07:52:04.286Z,98.74
2019-03-16T07:53:57.688Z,98.55
2019-03-16T07:54:57.697Z,98.36
2019-03-16T07:56:51.091Z,98.36
2019-03-16T07:57:51.102Z,98.17
2019-03-16T07:59:44.509Z,97.88
2019-03-16T08:00:44.506Z,97.88
2019-03-16T08:02:37.900Z,97.88
2019-03-16T08:03:37.914Z,97.88
2019-03-16T08:05:31.317Z,98.36
2019-03-16T08:06:33.381Z,98.46
2019-03-16T08:08:24.735Z,98.46
2019-03-16T08:09:24.736Z,98.08
2019-03-16T08:11:17.640Z,98.17
2019-03-16T08:12:17.638Z,98.55
2019-03-16T08:14:11.036Z,98.93
2019-03-16T08:15:11.162Z,99.02
2019-03-16T08:17:04.460Z,99.02
2019-03-16T08:18:07.662Z,99.50
2019-03-16T08:19:57.860Z,99.41
2019-03-16T08:20:57.860Z,99.88
2019-03-16T08:22:50.761Z,99.99
2019-03-16T08:23:53.673Z,99.88
2019-03-16T08:25:43.680Z,99.60
2019-03-16T08:26:43.681Z,99.98
2019-03-16T08:28:37.080Z,99.99
2019-03-16T08:29:37.089Z,99.99
2019-03-16T08:31:29.997Z,99.99
2019-03-16T08:32:30.002Z,99.99
2019-03-16T08:34:23.403Z,99.99
2019-03-16T08:35:23.411Z,99.99
2019-03-16T08:37:16.308Z,99.99
2019-03-16T08:38:16.319Z,99.99
2019-03-16T08:40:09.734Z,99.99
2019-03-16T08:41:09.727Z,99.99
2019-03-16T08:43:03.141Z,99.99
2019-03-16T08:44:03.145Z,99.99
2019-03-16T08:45:56.049Z,99.99
2019-03-16T08:46:56.046Z,99.99
2019-03-16T08:48:48.943Z,99.99
2019-03-16T08:49:48.961Z,99.99
2019-03-16T08:51:42.355Z,99.99
2019-03-16T08:52:42.361Z,99.99
2019-03-16T08:54:35.763Z,99.99
2019-03-16T08:55:35.768Z,99.99
2019-03-16T08:57:29.182Z,99.99
2019-03-16T08:58:29.195Z,99.99
2019-03-16T09:00:22.594Z,99.99
2019-03-16T09:01:22.599Z,99.99
2019-03-16T09:03:15.505Z,99.99
2019-03-16T09:04:15.516Z,99.99
2019-03-16T09:06:08.421Z,99.99
2019-03-16T09:07:08.447Z,99.99
2019-03-16T09:09:01.820Z,99.99
2019-03-16T09:10:01.840Z,99.99
2019-03-16T09:11:54.739Z,99.99
2019-03-16T09:12:55.536Z,99.99
2019-03-16T09:14:48.151Z,99.99
2019-03-16T09:15:48.158Z,99.99
2019-03-16T09:17:41.552Z,99.99
2019-03-16T09:18:41.567Z,99.99
2019-03-16T09:20:34.473Z,99.99
2019-03-16T09:21:34.478Z,99.99
2019-03-16T09:23:27.377Z,99.99
2019-03-16T09:24:27.390Z,99.99
2019-03-16T09:26:20.344Z,99.99
2019-03-16T09:27:30.532Z,99.99
2019-03-16T09:29:15.123Z,99.99
2019-03-16T09:30:13.211Z,99.99
2019-03-16T09:32:06.126Z,99.99
2019-03-16T09:33:06.145Z,99.99
2019-03-16T09:34:59.246Z,99.99
2019-03-16T09:35:59.886Z,99.99
2019-03-16T09:37:52.116Z,99.99
2019-03-16T09:38:52.127Z,99.99
2019-03-16T09:40:45.119Z,99.99
2019-03-16T09:41:45.038Z,99.99
2019-03-16T09:43:37.978Z,99.99
2019-03-16T09:44:37.980Z,99.99
2019-03-16T09:46:30.890Z,99.99
2019-03-16T09:47:30.896Z,99.99
2019-03-16T09:49:23.857Z,99.99
2019-03-16T09:50:23.843Z,99.99
2019-03-16T09:52:17.280Z,99.99
2019-03-16T09:53:17.268Z,99.99
2019-03-16T09:55:10.245Z,99.99
2019-03-16T09:56:10.221Z,99.99
2019-03-16T09:58:03.241Z,99.99
2019-03-16T09:59:03.123Z,99.99
2019-03-16T10:00:56.048Z,99.99
2019-03-16T10:01:56.047Z,99.99
2019-03-16T10:03:49.062Z,99.99
2019-03-16T10:04:48.955Z,99.99
2019-03-16T10:06:42.727Z,99.99
2019-03-16T10:07:42.724Z,99.99
2019-03-16T10:09:35.762Z,99.99
2019-03-16T10:10:35.664Z,99.99
2019-03-16T10:12:28.569Z,99.99
2019-03-16T10:13:28.614Z,99.99
2019-03-16T10:15:21.519Z,99.99
2019-03-16T10:16:21.497Z,99.99
2019-03-16T10:18:15.358Z,99.99
2019-03-16T10:19:14.660Z,99.99
2019-03-16T10:21:08.742Z,99.99
2019-03-16T10:22:07.492Z,99.99
2019-03-16T10:24:00.905Z,99.99
2019-03-16T10:25:00.427Z,99.99
2019-03-16T10:26:53.316Z,99.99
2019-03-16T10:27:53.322Z,99.99
2019-03-16T10:29:47.690Z,99.99
2019-03-16T10:30:47.685Z,99.99
2019-03-16T10:32:40.813Z,99.99
2019-03-16T10:33:41.270Z,99.99
2019-03-16T10:35:35.090Z,99.99
2019-03-16T10:36:34.250Z,99.99
2019-03-16T10:38:27.008Z,99.99
2019-03-16T10:39:26.981Z,99.99
2019-03-16T10:41:19.891Z,99.99
2019-03-16T10:42:19.993Z,99.99
2019-03-16T10:44:12.839Z,99.99
2019-03-16T10:45:12.836Z,99.99
2019-03-16T10:47:06.272Z,99.99
2019-03-16T10:48:06.256Z,99.99
2019-03-16T10:49:59.162Z,99.99
2019-03-16T10:50:59.170Z,99.99
2019-03-16T10:52:52.079Z,99.99
2019-03-16T10:53:52.086Z,99.99
2019-03-16T10:55:44.998Z,99.99
2019-03-16T10:56:45.001Z,99.99
2019-03-16T10:58:37.900Z,99.99
2019-03-16T10:59:37.916Z,99.99
2019-03-16T11:01:30.835Z,99.99
2019-03-16T11:02:31.533Z,99.99
2019-03-16T11:04:25.557Z,99.99
2019-03-16T11:05:25.372Z,99.99
2019-03-16T11:07:18.291Z,99.99
2019-03-16T11:08:18.281Z,99.99
2019-03-16T11:10:11.185Z,99.99
2019-03-16T11:11:11.198Z,99.99
2019-03-16T11:13:04.797Z,99.99
2019-03-16T11:14:04.606Z,99.99
2019-03-16T11:15:57.516Z,99.99
2019-03-16T11:16:57.524Z,99.99
2019-03-16T11:18:50.427Z,99.99
2019-03-16T11:19:50.446Z,99.99
2019-03-16T11:21:43.354Z,99.99
2019-03-16T11:22:43.359Z,99.99
2019-03-16T11:24:36.286Z,99.99
2019-03-16T11:25:36.283Z,99.99
2019-03-16T11:27:29.189Z,99.99
2019-03-16T11:28:29.191Z,99.99
2019-03-16T11:30:22.094Z,99.99
2019-03-16T11:31:22.108Z,99.99
2019-03-16T11:33:15.530Z,99.99
2019-03-16T11:34:15.533Z,99.99
2019-03-16T11:36:08.442Z,99.99
2019-03-16T11:37:08.451Z,99.99
2019-03-16T11:39:01.359Z,99.99
2019-03-16T11:40:01.375Z,99.99
2019-03-16T11:41:54.284Z,99.99
2019-03-16T11:42:54.286Z,99.99
2019-03-16T11:44:47.188Z,99.99
2019-03-16T11:45:47.202Z,99.99
2019-03-16T11:47:40.119Z,99.99
2019-03-16T11:48:40.117Z,99.99
2019-03-16T11:50:33.019Z,99.99
2019-03-16T11:51:33.033Z,99.99
2019-03-16T11:53:25.943Z,99.99
2019-03-16T11:54:25.948Z,99.99
2019-03-16T11:56:18.876Z,99.99
2019-03-16T11:57:18.880Z,99.99
2019-03-16T11:59:21.210Z,99.99
2019-03-16T12:00:12.297Z,99.99
2019-03-16T12:02:05.798Z,99.99
2019-03-16T12:03:05.206Z,99.99
2019-03-16T12:04:58.110Z,99.99
2019-03-16T12:05:58.121Z,99.99
2019-03-16T12:07:51.029Z,99.99
2019-03-16T12:08:51.036Z,99.37
2019-03-16T12:10:43.939Z,99.56
2019-03-16T12:11:43.950Z,98.99
2019-03-16T12:13:36.862Z,98.70
2019-03-16T12:14:36.870Z,98.99
2019-03-16T12:16:29.783Z,97.17
2019-03-16T12:17:29.790Z,97.46
2019-03-16T12:19:22.694Z,97.32
2019-03-16T12:20:22.705Z,97.03
2019-03-16T12:22:15.621Z,95.51
2019-03-16T12:23:15.626Z,94.07
2019-03-16T12:25:08.556Z,93.41
2019-03-16T12:26:08.542Z,93.98
2019-03-16T12:28:01.461Z,93.51
2019-03-16T12:29:01.459Z,93.51
2019-03-16T12:30:54.418Z,93.31
2019-03-16T12:31:54.383Z,93.12
2019-03-16T12:33:47.296Z,92.74
2019-03-16T12:34:47.300Z,92.93
2019-03-16T12:36:40.210Z,91.98
2019-03-16T12:37:40.212Z,91.50
2019-03-16T12:39:35.542Z,90.93
2019-03-16T12:40:33.135Z,91.12
2019-03-16T12:42:26.046Z,91.21
2019-03-16T12:43:26.052Z,91.21
2019-03-16T12:45:20.536Z,92.07
2019-03-16T12:46:18.970Z,92.17
2019-03-16T12:48:11.883Z,92.07
2019-03-16T12:49:11.891Z,92.36
2019-03-16T12:51:04.858Z,91.88
2019-03-16T12:52:04.913Z,91.98
2019-03-16T12:53:57.780Z,91.50
2019-03-16T12:54:57.790Z,90.73
2019-03-16T12:56:50.726Z,91.50
2019-03-16T12:57:50.742Z,90.64
2019-03-16T12:59:47.219Z,90.45
2019-03-16T13:00:44.141Z,90.26
2019-03-16T13:02:37.060Z,90.45
2019-03-16T13:03:37.059Z,90.83
2019-03-16T13:05:29.984Z,91.21
2019-03-16T13:06:30.009Z,90.93
2019-03-16T13:08:23.124Z,90.83
2019-03-16T13:09:23.137Z,90.07
2019-03-16T13:11:16.037Z,90.93
2019-03-16T13:12:16.047Z,90.83
2019-03-16T13:14:08.959Z,90.83
2019-03-16T13:15:08.968Z,91.02
2019-03-16T13:17:02.373Z,91.41
2019-03-16T13:18:02.392Z,90.83
2019-03-16T13:19:55.284Z,90.73
2019-03-16T13:20:55.308Z,90.17
2019-03-16T13:22:48.205Z,90.83
2019-03-16T13:23:48.212Z,90.55
2019-03-16T13:25:41.116Z,90.83
2019-03-16T13:26:41.128Z,90.73
2019-03-16T13:28:35.734Z,90.93
2019-03-16T13:29:34.541Z,91.02
2019-03-16T13:31:27.442Z,91.12
2019-03-16T13:32:27.455Z,90.36
2019-03-16T13:34:20.870Z,88.16
2019-03-16T13:35:20.877Z,87.78
2019-03-16T13:37:13.787Z,87.68
2019-03-16T13:38:13.791Z,87.78
2019-03-16T13:40:06.695Z,87.49
2019-03-16T13:41:06.709Z,86.44
2019-03-16T13:42:59.628Z,85.49
2019-03-16T13:43:59.626Z,86.06
2019-03-16T13:45:52.528Z,85.53
2019-03-16T13:46:52.547Z,86.30
2019-03-16T13:48:45.454Z,86.10
2019-03-16T13:49:45.459Z,85.25
2019-03-16T13:51:38.413Z,85.15
2019-03-16T13:52:38.378Z,85.25
2019-03-16T13:54:31.289Z,84.86
2019-03-16T13:55:31.295Z,84.48
2019-03-16T13:57:24.222Z,83.81
2019-03-16T13:58:24.225Z,84.86
2019-03-16T14:00:17.134Z,84.86
2019-03-16T14:01:17.140Z,84.96
2019-03-16T14:03:10.083Z,85.15
2019-03-16T14:04:10.126Z,85.15
2019-03-16T14:06:02.965Z,84.63
2019-03-16T14:07:03.052Z,84.77
2019-03-16T14:08:55.914Z,84.92
2019-03-16T14:09:55.914Z,84.63
2019-03-16T14:11:48.875Z,84.44
2019-03-16T14:12:48.847Z,84.44
2019-03-16T14:14:41.759Z,85.11
2019-03-16T14:15:41.763Z,85.11
2019-03-16T14:17:34.675Z,84.34
2019-03-16T14:18:34.681Z,84.63
2019-03-16T14:20:27.680Z,84.92
2019-03-16T14:21:27.621Z,84.63
2019-03-16T14:23:20.535Z,84.25
2019-03-16T14:24:20.540Z,84.25
2019-03-16T14:26:13.454Z,85.39
2019-03-16T14:27:13.463Z,85.49
2019-03-16T14:29:06.376Z,85.68
2019-03-16T14:30:06.379Z,86.06
2019-03-16T14:31:59.281Z,85.87
2019-03-16T14:32:59.304Z,85.77
2019-03-16T14:34:52.375Z,85.77
2019-03-16T14:35:52.209Z,86.44
2019-03-16T14:37:45.124Z,85.87
2019-03-16T14:38:45.128Z,85.87
2019-03-16T14:40:38.049Z,86.35
2019-03-16T14:41:38.041Z,86.63
2019-03-16T14:43:30.956Z,86.06
2019-03-16T14:44:30.959Z,86.82
2019-03-16T14:46:24.893Z,86.35
2019-03-16T14:47:24.905Z,85.97
2019-03-16T14:49:17.820Z,87.59
2019-03-16T14:50:17.925Z,86.92
2019-03-16T14:52:10.824Z,87.78
2019-03-16T14:53:10.778Z,87.16
2019-03-16T14:55:03.707Z,87.93
2019-03-16T14:56:03.712Z,87.35
2019-03-16T14:57:56.622Z,87.78
2019-03-16T14:58:56.704Z,87.45
2019-03-16T15:00:49.591Z,87.16
2019-03-16T15:01:49.550Z,86.78
2019-03-16T15:03:42.464Z,86.35
2019-03-16T15:04:42.479Z,86.63
2019-03-16T15:06:35.374Z,85.49
2019-03-16T15:07:35.383Z,85.45
2019-03-16T15:09:28.296Z,85.68
2019-03-16T15:10:28.303Z,85.68
2019-03-16T15:12:21.204Z,84.82
2019-03-16T15:13:21.217Z,85.49
2019-03-16T15:15:14.127Z,84.34
2019-03-16T15:16:14.133Z,84.25
2019-03-16T15:18:07.043Z,84.44
2019-03-16T15:19:07.049Z,84.34
2019-03-16T15:20:59.960Z,84.16
2019-03-16T15:21:59.965Z,84.34
2019-03-16T15:23:52.878Z,83.58
2019-03-16T15:24:52.883Z,83.39
2019-03-16T15:26:45.794Z,83.77
2019-03-16T15:27:45.802Z,83.39
2019-03-16T15:29:38.712Z,83.67
2019-03-16T15:30:50.240Z,82.34
2019-03-16T15:32:31.623Z,81.29
2019-03-16T15:33:31.632Z,80.72
2019-03-16T15:35:24.560Z,80.72
2019-03-16T15:36:24.562Z,80.43
2019-03-16T15:38:17.468Z,80.57
2019-03-16T15:39:17.475Z,80.38
2019-03-16T15:41:11.410Z,79.28
2019-03-16T15:42:11.416Z,79.10
2019-03-16T15:44:04.357Z,79.71
2019-03-16T15:45:04.341Z,79.19
2019-03-16T15:46:57.328Z,79.23
2019-03-16T15:47:57.277Z,79.43
2019-03-16T15:49:50.171Z,77.99
2019-03-16T15:50:50.179Z,78.18
2019-03-16T15:52:43.081Z,78.18
2019-03-16T15:53:43.094Z,78.85
2019-03-16T15:55:36.004Z,78.94
2019-03-16T15:56:36.011Z,78.85
2019-03-16T15:58:29.013Z,79.33
2019-03-16T15:59:28.928Z,79.43
2019-03-16T16:01:22.330Z,78.37
2019-03-16T16:02:22.355Z,78.37
2019-03-16T16:04:15.253Z,78.28
2019-03-16T16:05:15.266Z,78.47
2019-03-16T16:07:08.206Z,78.66
2019-03-16T16:08:08.199Z,78.47
2019-03-16T16:10:01.628Z,78.85
2019-03-16T16:11:01.634Z,79.04
2019-03-16T16:12:54.550Z,79.04
2019-03-16T16:13:54.565Z,79.67
2019-03-16T16:15:47.488Z,79.99
2019-03-16T16:16:47.474Z,79.71
2019-03-16T16:18:40.391Z,79.80
2019-03-16T16:19:40.393Z,79.99
2019-03-16T16:21:33.297Z,79.90
2019-03-16T16:22:33.311Z,79.61
2019-03-16T16:24:26.221Z,79.71
2019-03-16T16:25:26.229Z,80.05
2019-03-16T16:27:19.133Z,79.86
2019-03-16T16:28:19.146Z,80.62
2019-03-16T16:30:12.077Z,81.29
2019-03-16T16:31:16.533Z,79.57
2019-03-16T16:33:04.984Z,79.28
2019-03-16T16:34:04.979Z,79.28
2019-03-16T16:35:57.891Z,79.10
2019-03-16T16:36:57.896Z,79.10
2019-03-16T16:38:50.807Z,79.57
2019-03-16T16:39:50.814Z,79.19
2019-03-16T16:41:43.717Z,78.81
2019-03-16T16:42:43.729Z,79.00
2019-03-16T16:44:36.672Z,79.19
2019-03-16T16:45:36.679Z,78.81
2019-03-16T16:47:29.604Z,78.81
2019-03-16T16:48:29.599Z,78.62
2019-03-16T16:50:23.002Z,79.19
2019-03-16T16:51:23.009Z,79.19
2019-03-16T16:53:15.919Z,79.77
2019-03-16T16:54:15.933Z,79.28
2019-03-16T16:56:08.884Z,79.86
2019-03-16T16:57:08.871Z,79.57
2019-03-16T16:59:01.783Z,79.86
2019-03-16T17:00:01.790Z,80.05
2019-03-16T17:01:54.696Z,79.77
2019-03-16T17:02:54.707Z,79.57
2019-03-16T17:04:47.617Z,79.77
2019-03-16T17:05:47.630Z,79.67
2019-03-16T17:07:40.528Z,79.77
2019-03-16T17:08:40.541Z,79.67
2019-03-16T17:10:33.450Z,79.86
2019-03-16T17:11:33.459Z,79.57
2019-03-16T17:13:26.367Z,79.77
2019-03-16T17:14:26.382Z,79.96
2019-03-16T17:16:19.292Z,79.48
2019-03-16T17:17:19.297Z,79.86
2019-03-16T17:19:12.704Z,79.57
2019-03-16T17:20:12.708Z,79.96
2019-03-16T17:22:05.613Z,79.77
2019-03-16T17:23:05.625Z,79.86
2019-03-16T17:24:58.534Z,79.57
2019-03-16T17:25:58.540Z,79.67
2019-03-16T17:27:54.199Z,79.57
2019-03-16T17:28:51.456Z,78.91
2019-03-16T17:30:44.366Z,79.10
2019-03-16T17:31:44.375Z,78.91
2019-03-16T17:33:37.277Z,79.28
2019-03-16T17:34:37.296Z,78.81
2019-03-16T17:36:30.230Z,78.91
2019-03-16T17:37:30.243Z,78.62
2019-03-16T17:39:23.151Z,79.28
2019-03-16T17:40:23.230Z,78.91
2019-03-16T17:42:16.088Z,78.62
2019-03-16T17:43:16.073Z,79.00
2019-03-16T17:45:08.993Z,78.62
2019-03-16T17:46:08.992Z,78.52
2019-03-16T17:48:01.905Z,78.81
2019-03-16T17:49:01.928Z,78.91
2019-03-16T17:50:56.214Z,78.72
2019-03-16T17:51:58.124Z,78.81
2019-03-16T17:53:49.164Z,77.95
2019-03-16T17:54:49.174Z,77.95
2019-03-16T17:56:42.088Z,78.33
2019-03-16T17:57:45.007Z,78.14
2019-03-16T17:59:35.016Z,78.72
2019-03-16T18:00:35.008Z,78.43
2019-03-16T18:02:27.911Z,78.01
2019-03-16T18:03:27.927Z,77.76
2019-03-16T18:05:20.839Z,78.20
2019-03-16T18:06:20.840Z,78.14
2019-03-16T18:08:13.747Z,77.82
2019-03-16T18:09:13.765Z,78.58
2019-03-16T18:11:06.662Z,78.39
2019-03-16T18:12:06.674Z,78.43
2019-03-16T18:13:59.580Z,78.05
2019-03-16T18:14:59.601Z,78.43
2019-03-16T18:16:52.502Z,78.43
2019-03-16T18:17:52.508Z,78.23
2019-03-16T18:19:45.922Z,78.43
2019-03-16T18:20:45.932Z,78.23
2019-03-16T18:22:38.835Z,78.33
2019-03-16T18:23:38.846Z,78.39
2019-03-16T18:25:31.757Z,78.33
2019-03-16T18:26:31.761Z,78.30
2019-03-16T18:28:24.728Z,78.43
2019-03-16T18:29:24.678Z,78.39
2019-03-16T18:31:18.083Z,78.52
2019-03-16T18:32:18.090Z,78.33
2019-03-16T18:34:10.994Z,77.91
2019-03-16T18:35:11.001Z,78.43